sensor_id;sensor_type;location;lat;lon;timestamp;P1;durP1;ratioP1;P2;durP2;ratioP2
5085;SDS011;4715;51.660;7.082;2023-07-30T00:02:01;2.63;;;2.43;;
5085;SDS011;4715;51.660;7.082;2023-07-30T00:04:23;3.27;;;2.60;;
5085;SDS011;4715;51.660;7.082;2023-07-30T00:06:44;3.50;;;2.80;;
5085;SDS011;4715;51.660;7.082;2023-07-30T00:09:06;3.40;;;2.20;;
5085;SDS011;4715;51.660;7.082;2023-07-30T00:11:29;4.80;;;2.63;;
5085;SDS011;4715;51.660;7.082;2023-07-30T00:13:51;3.10;;;2.27;;
5085;SDS011;4715;51.660;7.082;2023-07-30T00:16:13;3.43;;;2.23;;
5085;SDS011;4715;51.660;7.082;2023-07-30T00:18:35;2.33;;;2.10;;
5085;SDS011;4715;51.660;7.082;2023-07-30T00:20:57;2.50;;;2.40;;
5085;SDS011;4715;51.660;7.082;2023-07-30T00:23:19;2.90;;;2.43;;
5085;SDS011;4715;51.660;7.082;2023-07-30T00:25:40;2.80;;;2.53;;
5085;SDS011;4715;51.660;7.082;2023-07-30T00:28:04;2.53;;;2.33;;
5085;SDS011;4715;51.660;7.082;2023-07-30T00:30:25;3.73;;;2.60;;
5085;SDS011;4715;51.660;7.082;2023-07-30T00:32:47;2.10;;;1.90;;
5085;SDS011;4715;51.660;7.082;2023-07-30T00:35:09;2.87;;;2.60;;
5085;SDS011;4715;51.660;7.082;2023-07-30T00:37:31;2.67;;;2.43;;
5085;SDS011;4715;51.660;7.082;2023-07-30T00:39:53;3.90;;;2.60;;
5085;SDS011;4715;51.660;7.082;2023-07-30T00:42:15;2.93;;;2.50;;
5085;SDS011;4715;51.660;7.082;2023-07-30T00:44:38;2.73;;;2.30;;
5085;SDS011;4715;51.660;7.082;2023-07-30T00:47:00;2.90;;;1.90;;
5085;SDS011;4715;51.660;7.082;2023-07-30T00:49:23;4.70;;;2.63;;
5085;SDS011;4715;51.660;7.082;2023-07-30T00:51:45;5.53;;;3.00;;
5085;SDS011;4715;51.660;7.082;2023-07-30T00:54:07;5.53;;;2.90;;
5085;SDS011;4715;51.660;7.082;2023-07-30T00:56:29;4.20;;;2.17;;
5085;SDS011;4715;51.660;7.082;2023-07-30T00:58:51;3.90;;;2.47;;
5085;SDS011;4715;51.660;7.082;2023-07-30T01:01:16;2.33;;;2.20;;
5085;SDS011;4715;51.660;7.082;2023-07-30T01:03:38;3.33;;;2.13;;
5085;SDS011;4715;51.660;7.082;2023-07-30T01:06:00;10.00;;;2.57;;
5085;SDS011;4715;51.660;7.082;2023-07-30T01:08:23;2.23;;;2.03;;
5085;SDS011;4715;51.660;7.082;2023-07-30T01:10:45;2.80;;;2.27;;
5085;SDS011;4715;51.660;7.082;2023-07-30T01:13:08;2.90;;;2.60;;
5085;SDS011;4715;51.660;7.082;2023-07-30T01:15:31;4.07;;;2.03;;
5085;SDS011;4715;51.660;7.082;2023-07-30T01:17:54;8.73;;;2.47;;
5085;SDS011;4715;51.660;7.082;2023-07-30T01:20:17;5.23;;;2.43;;
5085;SDS011;4715;51.660;7.082;2023-07-30T01:22:42;4.13;;;2.40;;
5085;SDS011;4715;51.660;7.082;2023-07-30T01:25:04;8.93;;;3.50;;
5085;SDS011;4715;51.660;7.082;2023-07-30T01:27:27;2.60;;;2.40;;
5085;SDS011;4715;51.660;7.082;2023-07-30T01:29:51;2.83;;;2.47;;
5085;SDS011;4715;51.660;7.082;2023-07-30T01:32:15;3.43;;;2.00;;
5085;SDS011;4715;51.660;7.082;2023-07-30T01:34:40;7.57;;;2.10;;
5085;SDS011;4715;51.660;7.082;2023-07-30T01:37:04;4.97;;;2.60;;
5085;SDS011;4715;51.660;7.082;2023-07-30T01:39:30;10.83;;;2.60;;
5085;SDS011;4715;51.660;7.082;2023-07-30T01:41:54;4.30;;;2.50;;
5085;SDS011;4715;51.660;7.082;2023-07-30T01:44:16;5.43;;;2.43;;
5085;SDS011;4715;51.660;7.082;2023-07-30T01:46:38;5.43;;;2.63;;
5085;SDS011;4715;51.660;7.082;2023-07-30T01:49:00;6.57;;;2.23;;
5085;SDS011;4715;51.660;7.082;2023-07-30T01:51:22;4.80;;;2.37;;
5085;SDS011;4715;51.660;7.082;2023-07-30T01:53:43;3.53;;;2.43;;
5085;SDS011;4715;51.660;7.082;2023-07-30T01:56:07;4.33;;;2.60;;
5085;SDS011;4715;51.660;7.082;2023-07-30T01:58:29;3.63;;;2.20;;
5085;SDS011;4715;51.660;7.082;2023-07-30T02:00:50;2.90;;;2.70;;
5085;SDS011;4715;51.660;7.082;2023-07-30T02:03:12;3.30;;;2.67;;
5085;SDS011;4715;51.660;7.082;2023-07-30T02:05:34;4.70;;;2.17;;
5085;SDS011;4715;51.660;7.082;2023-07-30T02:07:57;4.23;;;2.57;;
5085;SDS011;4715;51.660;7.082;2023-07-30T02:10:19;2.80;;;2.30;;
5085;SDS011;4715;51.660;7.082;2023-07-30T02:12:42;2.77;;;2.57;;
5085;SDS011;4715;51.660;7.082;2023-07-30T02:15:05;6.67;;;2.70;;
5085;SDS011;4715;51.660;7.082;2023-07-30T02:17:28;2.10;;;1.93;;
5085;SDS011;4715;51.660;7.082;2023-07-30T02:19:50;10.73;;;2.60;;
5085;SDS011;4715;51.660;7.082;2023-07-30T02:22:11;5.17;;;2.30;;
5085;SDS011;4715;51.660;7.082;2023-07-30T02:24:33;7.33;;;2.87;;
5085;SDS011;4715;51.660;7.082;2023-07-30T02:26:55;2.73;;;2.50;;
5085;SDS011;4715;51.660;7.082;2023-07-30T02:29:19;4.30;;;2.70;;
5085;SDS011;4715;51.660;7.082;2023-07-30T02:31:40;2.83;;;2.53;;
5085;SDS011;4715;51.660;7.082;2023-07-30T02:34:02;6.37;;;2.67;;
5085;SDS011;4715;51.660;7.082;2023-07-30T02:36:24;8.33;;;2.90;;
5085;SDS011;4715;51.660;7.082;2023-07-30T02:38:46;6.97;;;2.67;;
5085;SDS011;4715;51.660;7.082;2023-07-30T02:41:08;4.30;;;2.97;;
5085;SDS011;4715;51.660;7.082;2023-07-30T02:43:29;3.53;;;3.23;;
5085;SDS011;4715;51.660;7.082;2023-07-30T02:45:52;3.00;;;2.33;;
5085;SDS011;4715;51.660;7.082;2023-07-30T02:48:14;3.43;;;2.40;;
5085;SDS011;4715;51.660;7.082;2023-07-30T02:50:36;3.60;;;2.73;;
5085;SDS011;4715;51.660;7.082;2023-07-30T02:52:58;4.00;;;2.47;;
5085;SDS011;4715;51.660;7.082;2023-07-30T02:55:20;3.73;;;2.50;;
5085;SDS011;4715;51.660;7.082;2023-07-30T02:57:42;4.40;;;2.77;;
5085;SDS011;4715;51.660;7.082;2023-07-30T03:00:04;3.93;;;2.67;;
5085;SDS011;4715;51.660;7.082;2023-07-30T03:02:28;3.20;;;2.40;;
5085;SDS011;4715;51.660;7.082;2023-07-30T03:04:50;4.13;;;3.10;;
5085;SDS011;4715;51.660;7.082;2023-07-30T03:07:12;4.13;;;2.60;;
5085;SDS011;4715;51.660;7.082;2023-07-30T03:09:34;7.00;;;3.13;;
5085;SDS011;4715;51.660;7.082;2023-07-30T03:11:56;4.57;;;2.40;;
5085;SDS011;4715;51.660;7.082;2023-07-30T03:14:21;3.83;;;2.60;;
5085;SDS011;4715;51.660;7.082;2023-07-30T03:16:42;4.30;;;2.80;;
5085;SDS011;4715;51.660;7.082;2023-07-30T03:19:06;4.93;;;3.07;;
5085;SDS011;4715;51.660;7.082;2023-07-30T03:21:28;3.83;;;2.50;;
5085;SDS011;4715;51.660;7.082;2023-07-30T03:23:49;5.50;;;3.10;;
5085;SDS011;4715;51.660;7.082;2023-07-30T03:26:11;5.20;;;2.73;;
5085;SDS011;4715;51.660;7.082;2023-07-30T03:28:33;4.13;;;2.80;;
5085;SDS011;4715;51.660;7.082;2023-07-30T03:30:55;3.70;;;2.70;;
5085;SDS011;4715;51.660;7.082;2023-07-30T03:33:17;5.03;;;3.20;;
5085;SDS011;4715;51.660;7.082;2023-07-30T03:35:40;4.77;;;3.20;;
5085;SDS011;4715;51.660;7.082;2023-07-30T03:38:02;4.20;;;2.70;;
5085;SDS011;4715;51.660;7.082;2023-07-30T03:40:26;4.57;;;2.90;;
5085;SDS011;4715;51.660;7.082;2023-07-30T03:42:47;6.10;;;3.23;;
5085;SDS011;4715;51.660;7.082;2023-07-30T03:45:10;4.70;;;2.97;;
5085;SDS011;4715;51.660;7.082;2023-07-30T03:47:32;7.57;;;3.53;;
5085;SDS011;4715;51.660;7.082;2023-07-30T03:49:54;5.60;;;3.20;;
5085;SDS011;4715;51.660;7.082;2023-07-30T03:52:17;5.23;;;3.17;;
5085;SDS011;4715;51.660;7.082;2023-07-30T03:54:39;5.20;;;3.37;;
5085;SDS011;4715;51.660;7.082;2023-07-30T03:57:01;3.47;;;2.80;;
5085;SDS011;4715;51.660;7.082;2023-07-30T03:59:23;4.27;;;2.97;;
5085;SDS011;4715;51.660;7.082;2023-07-30T04:01:44;5.30;;;3.03;;
5085;SDS011;4715;51.660;7.082;2023-07-30T04:04:08;4.47;;;3.30;;
5085;SDS011;4715;51.660;7.082;2023-07-30T04:06:29;5.13;;;3.10;;
5085;SDS011;4715;51.660;7.082;2023-07-30T04:08:53;2.70;;;2.50;;
5085;SDS011;4715;51.660;7.082;2023-07-30T04:11:15;11.60;;;3.37;;
5085;SDS011;4715;51.660;7.082;2023-07-30T04:13:37;4.80;;;3.17;;
5085;SDS011;4715;51.660;7.082;2023-07-30T04:16:00;3.60;;;3.30;;
5085;SDS011;4715;51.660;7.082;2023-07-30T04:18:22;3.57;;;2.70;;
5085;SDS011;4715;51.660;7.082;2023-07-30T04:20:44;3.83;;;2.93;;
5085;SDS011;4715;51.660;7.082;2023-07-30T04:23:06;5.97;;;3.73;;
5085;SDS011;4715;51.660;7.082;2023-07-30T04:25:29;5.00;;;2.63;;
5085;SDS011;4715;51.660;7.082;2023-07-30T04:27:51;3.80;;;2.90;;
5085;SDS011;4715;51.660;7.082;2023-07-30T04:30:12;4.23;;;2.80;;
5085;SDS011;4715;51.660;7.082;2023-07-30T04:32:34;3.83;;;3.40;;
5085;SDS011;4715;51.660;7.082;2023-07-30T04:34:56;4.83;;;3.10;;
5085;SDS011;4715;51.660;7.082;2023-07-30T04:37:18;3.60;;;2.67;;
5085;SDS011;4715;51.660;7.082;2023-07-30T04:39:40;4.50;;;3.30;;
5085;SDS011;4715;51.660;7.082;2023-07-30T04:42:03;11.43;;;3.50;;
5085;SDS011;4715;51.660;7.082;2023-07-30T04:44:26;5.83;;;2.90;;
5085;SDS011;4715;51.660;7.082;2023-07-30T04:46:48;7.63;;;4.00;;
5085;SDS011;4715;51.660;7.082;2023-07-30T04:49:10;6.50;;;3.40;;
5085;SDS011;4715;51.660;7.082;2023-07-30T04:51:32;6.13;;;3.50;;
5085;SDS011;4715;51.660;7.082;2023-07-30T04:53:54;9.70;;;3.80;;
5085;SDS011;4715;51.660;7.082;2023-07-30T04:56:15;9.03;;;3.80;;
5085;SDS011;4715;51.660;7.082;2023-07-30T04:58:38;7.13;;;3.80;;
5085;SDS011;4715;51.660;7.082;2023-07-30T05:01:00;9.17;;;4.00;;
5085;SDS011;4715;51.660;7.082;2023-07-30T05:03:22;9.60;;;4.27;;
5085;SDS011;4715;51.660;7.082;2023-07-30T05:05:44;4.87;;;3.30;;
5085;SDS011;4715;51.660;7.082;2023-07-30T05:08:06;9.27;;;3.90;;
5085;SDS011;4715;51.660;7.082;2023-07-30T05:10:28;6.50;;;3.80;;
5085;SDS011;4715;51.660;7.082;2023-07-30T05:12:49;7.60;;;4.30;;
5085;SDS011;4715;51.660;7.082;2023-07-30T05:15:13;11.70;;;4.67;;
5085;SDS011;4715;51.660;7.082;2023-07-30T05:17:34;11.30;;;5.37;;
5085;SDS011;4715;51.660;7.082;2023-07-30T05:19:56;11.10;;;4.50;;
5085;SDS011;4715;51.660;7.082;2023-07-30T05:22:18;10.13;;;4.80;;
5085;SDS011;4715;51.660;7.082;2023-07-30T05:24:44;7.90;;;3.93;;
5085;SDS011;4715;51.660;7.082;2023-07-30T05:27:06;12.13;;;5.00;;
5085;SDS011;4715;51.660;7.082;2023-07-30T05:29:28;7.27;;;4.77;;
5085;SDS011;4715;51.660;7.082;2023-07-30T05:31:51;9.87;;;4.33;;
5085;SDS011;4715;51.660;7.082;2023-07-30T05:34:12;10.73;;;4.90;;
5085;SDS011;4715;51.660;7.082;2023-07-30T05:36:34;7.63;;;4.33;;
5085;SDS011;4715;51.660;7.082;2023-07-30T05:38:56;13.17;;;4.73;;
5085;SDS011;4715;51.660;7.082;2023-07-30T05:41:18;14.90;;;5.83;;
5085;SDS011;4715;51.660;7.082;2023-07-30T05:43:41;7.50;;;5.03;;
5085;SDS011;4715;51.660;7.082;2023-07-30T05:46:03;12.40;;;5.37;;
5085;SDS011;4715;51.660;7.082;2023-07-30T05:48:26;8.60;;;5.20;;
5085;SDS011;4715;51.660;7.082;2023-07-30T05:50:48;13.63;;;5.60;;
5085;SDS011;4715;51.660;7.082;2023-07-30T05:53:10;14.40;;;5.47;;
5085;SDS011;4715;51.660;7.082;2023-07-30T05:55:31;12.33;;;5.03;;
5085;SDS011;4715;51.660;7.082;2023-07-30T05:57:53;10.93;;;5.03;;
5085;SDS011;4715;51.660;7.082;2023-07-30T06:00:16;11.73;;;5.17;;
5085;SDS011;4715;51.660;7.082;2023-07-30T06:02:38;9.90;;;5.37;;
5085;SDS011;4715;51.660;7.082;2023-07-30T06:05:01;13.17;;;4.90;;
5085;SDS011;4715;51.660;7.082;2023-07-30T06:07:23;10.70;;;4.97;;
5085;SDS011;4715;51.660;7.082;2023-07-30T06:09:45;11.63;;;5.20;;
5085;SDS011;4715;51.660;7.082;2023-07-30T06:12:07;7.63;;;4.53;;
5085;SDS011;4715;51.660;7.082;2023-07-30T06:14:29;6.90;;;4.80;;
5085;SDS011;4715;51.660;7.082;2023-07-30T06:16:51;13.37;;;7.60;;
5085;SDS011;4715;51.660;7.082;2023-07-30T06:19:13;15.40;;;5.70;;
5085;SDS011;4715;51.660;7.082;2023-07-30T06:21:36;10.37;;;5.40;;
5085;SDS011;4715;51.660;7.082;2023-07-30T06:23:58;6.03;;;5.13;;
5085;SDS011;4715;51.660;7.082;2023-07-30T06:26:20;8.87;;;5.23;;
5085;SDS011;4715;51.660;7.082;2023-07-30T06:28:41;8.97;;;5.17;;
5085;SDS011;4715;51.660;7.082;2023-07-30T06:31:04;16.43;;;5.30;;
5085;SDS011;4715;51.660;7.082;2023-07-30T06:33:25;14.37;;;6.00;;
5085;SDS011;4715;51.660;7.082;2023-07-30T06:35:47;14.93;;;6.73;;
5085;SDS011;4715;51.660;7.082;2023-07-30T06:38:10;14.77;;;6.27;;
5085;SDS011;4715;51.660;7.082;2023-07-30T06:40:32;12.63;;;6.37;;
5085;SDS011;4715;51.660;7.082;2023-07-30T06:42:55;7.53;;;4.87;;
5085;SDS011;4715;51.660;7.082;2023-07-30T06:45:16;7.23;;;4.97;;
5085;SDS011;4715;51.660;7.082;2023-07-30T06:47:38;10.87;;;5.30;;
5085;SDS011;4715;51.660;7.082;2023-07-30T06:50:01;11.83;;;6.40;;
5085;SDS011;4715;51.660;7.082;2023-07-30T06:52:23;12.97;;;6.73;;
5085;SDS011;4715;51.660;7.082;2023-07-30T06:54:47;14.90;;;7.33;;
5085;SDS011;4715;51.660;7.082;2023-07-30T06:57:09;9.93;;;7.10;;
5085;SDS011;4715;51.660;7.082;2023-07-30T06:59:31;12.23;;;7.17;;
5085;SDS011;4715;51.660;7.082;2023-07-30T07:01:53;13.53;;;8.17;;
5085;SDS011;4715;51.660;7.082;2023-07-30T07:04:15;7.57;;;6.27;;
5085;SDS011;4715;51.660;7.082;2023-07-30T07:06:37;13.80;;;6.70;;
5085;SDS011;4715;51.660;7.082;2023-07-30T07:08:59;17.03;;;6.87;;
5085;SDS011;4715;51.660;7.082;2023-07-30T07:11:22;9.60;;;6.40;;
5085;SDS011;4715;51.660;7.082;2023-07-30T07:13:44;18.00;;;6.77;;
5085;SDS011;4715;51.660;7.082;2023-07-30T07:16:06;16.57;;;8.37;;
5085;SDS011;4715;51.660;7.082;2023-07-30T07:18:28;9.97;;;6.37;;
5085;SDS011;4715;51.660;7.082;2023-07-30T07:20:49;12.00;;;6.30;;
5085;SDS011;4715;51.660;7.082;2023-07-30T07:23:11;7.73;;;4.83;;
5085;SDS011;4715;51.660;7.082;2023-07-30T07:25:33;5.87;;;5.00;;
5085;SDS011;4715;51.660;7.082;2023-07-30T07:27:56;21.10;;;6.30;;
5085;SDS011;4715;51.660;7.082;2023-07-30T07:30:18;11.23;;;4.70;;
5085;SDS011;4715;51.660;7.082;2023-07-30T07:32:40;13.33;;;5.57;;
5085;SDS011;4715;51.660;7.082;2023-07-30T07:35:02;13.40;;;5.10;;
5085;SDS011;4715;51.660;7.082;2023-07-30T07:37:24;11.63;;;5.63;;
5085;SDS011;4715;51.660;7.082;2023-07-30T07:39:46;12.87;;;5.30;;
5085;SDS011;4715;51.660;7.082;2023-07-30T07:42:07;12.67;;;4.70;;
5085;SDS011;4715;51.660;7.082;2023-07-30T07:44:31;9.73;;;6.30;;
5085;SDS011;4715;51.660;7.082;2023-07-30T07:46:53;11.87;;;5.10;;
5085;SDS011;4715;51.660;7.082;2023-07-30T07:49:14;8.67;;;5.20;;
5085;SDS011;4715;51.660;7.082;2023-07-30T07:51:36;13.83;;;5.87;;
5085;SDS011;4715;51.660;7.082;2023-07-30T07:53:58;9.43;;;6.10;;
5085;SDS011;4715;51.660;7.082;2023-07-30T07:56:20;7.93;;;5.53;;
5085;SDS011;4715;51.660;7.082;2023-07-30T07:58:42;10.23;;;6.30;;
5085;SDS011;4715;51.660;7.082;2023-07-30T08:01:05;13.00;;;5.70;;
5085;SDS011;4715;51.660;7.082;2023-07-30T08:03:27;8.93;;;5.40;;
5085;SDS011;4715;51.660;7.082;2023-07-30T08:05:49;14.23;;;6.07;;
5085;SDS011;4715;51.660;7.082;2023-07-30T08:08:11;18.13;;;6.00;;
5085;SDS011;4715;51.660;7.082;2023-07-30T08:10:32;5.23;;;4.47;;
5085;SDS011;4715;51.660;7.082;2023-07-30T08:12:54;6.00;;;4.83;;
5085;SDS011;4715;51.660;7.082;2023-07-30T08:15:16;9.10;;;5.10;;
5085;SDS011;4715;51.660;7.082;2023-07-30T08:17:40;12.00;;;5.77;;
5085;SDS011;4715;51.660;7.082;2023-07-30T08:20:01;11.53;;;4.63;;
5085;SDS011;4715;51.660;7.082;2023-07-30T08:22:24;7.30;;;5.10;;
5085;SDS011;4715;51.660;7.082;2023-07-30T08:24:46;7.30;;;5.40;;
5085;SDS011;4715;51.660;7.082;2023-07-30T08:27:08;6.30;;;5.27;;
5085;SDS011;4715;51.660;7.082;2023-07-30T08:29:30;6.73;;;4.60;;
5085;SDS011;4715;51.660;7.082;2023-07-30T08:31:52;8.13;;;4.60;;
5085;SDS011;4715;51.660;7.082;2023-07-30T08:34:15;12.77;;;5.57;;
5085;SDS011;4715;51.660;7.082;2023-07-30T08:36:37;7.93;;;5.47;;
5085;SDS011;4715;51.660;7.082;2023-07-30T08:38:58;6.80;;;4.30;;
5085;SDS011;4715;51.660;7.082;2023-07-30T08:41:20;13.30;;;5.13;;
5085;SDS011;4715;51.660;7.082;2023-07-30T08:43:43;8.00;;;5.00;;
5085;SDS011;4715;51.660;7.082;2023-07-30T08:46:08;7.70;;;5.07;;
5085;SDS011;4715;51.660;7.082;2023-07-30T08:48:30;8.73;;;3.90;;
5085;SDS011;4715;51.660;7.082;2023-07-30T08:50:54;4.67;;;4.23;;
5085;SDS011;4715;51.660;7.082;2023-07-30T08:53:17;7.13;;;4.37;;
5085;SDS011;4715;51.660;7.082;2023-07-30T08:55:40;14.73;;;5.30;;
5085;SDS011;4715;51.660;7.082;2023-07-30T08:58:03;9.27;;;4.60;;
5085;SDS011;4715;51.660;7.082;2023-07-30T09:00:25;12.90;;;4.37;;
5085;SDS011;4715;51.660;7.082;2023-07-30T09:02:52;17.33;;;4.07;;
5085;SDS011;4715;51.660;7.082;2023-07-30T09:05:16;4.60;;;3.07;;
5085;SDS011;4715;51.660;7.082;2023-07-30T09:07:39;9.30;;;3.50;;
5085;SDS011;4715;51.660;7.082;2023-07-30T09:10:02;11.07;;;3.37;;
5085;SDS011;4715;51.660;7.082;2023-07-30T09:12:25;7.67;;;3.70;;
5085;SDS011;4715;51.660;7.082;2023-07-30T09:14:50;7.60;;;3.37;;
5085;SDS011;4715;51.660;7.082;2023-07-30T09:17:16;6.80;;;3.50;;
5085;SDS011;4715;51.660;7.082;2023-07-30T09:19:38;7.70;;;3.47;;
5085;SDS011;4715;51.660;7.082;2023-07-30T09:22:02;5.93;;;3.60;;
5085;SDS011;4715;51.660;7.082;2023-07-30T09:24:27;7.80;;;3.90;;
5085;SDS011;4715;51.660;7.082;2023-07-30T09:26:49;10.93;;;4.17;;
5085;SDS011;4715;51.660;7.082;2023-07-30T09:29:11;11.67;;;3.30;;
5085;SDS011;4715;51.660;7.082;2023-07-30T09:31:40;5.70;;;2.67;;
5085;SDS011;4715;51.660;7.082;2023-07-30T09:34:07;9.00;;;3.10;;
5085;SDS011;4715;51.660;7.082;2023-07-30T09:36:30;5.83;;;2.80;;
5085;SDS011;4715;51.660;7.082;2023-07-30T09:38:52;6.60;;;3.50;;
5085;SDS011;4715;51.660;7.082;2023-07-30T09:41:16;4.97;;;2.97;;
5085;SDS011;4715;51.660;7.082;2023-07-30T09:43:38;6.40;;;3.03;;
5085;SDS011;4715;51.660;7.082;2023-07-30T09:46:03;4.37;;;2.50;;
5085;SDS011;4715;51.660;7.082;2023-07-30T09:48:28;8.63;;;2.73;;
5085;SDS011;4715;51.660;7.082;2023-07-30T09:50:51;6.30;;;2.67;;
5085;SDS011;4715;51.660;7.082;2023-07-30T09:53:14;3.50;;;1.90;;
5085;SDS011;4715;51.660;7.082;2023-07-30T09:55:37;6.17;;;2.60;;
5085;SDS011;4715;51.660;7.082;2023-07-30T09:58:00;6.20;;;2.30;;
5085;SDS011;4715;51.660;7.082;2023-07-30T10:00:22;4.30;;;2.20;;
5085;SDS011;4715;51.660;7.082;2023-07-30T10:02:46;8.00;;;2.50;;
5085;SDS011;4715;51.660;7.082;2023-07-30T10:05:10;4.63;;;2.10;;
5085;SDS011;4715;51.660;7.082;2023-07-30T10:07:35;6.90;;;2.87;;
5085;SDS011;4715;51.660;7.082;2023-07-30T10:10:00;5.43;;;2.20;;
5085;SDS011;4715;51.660;7.082;2023-07-30T10:12:24;4.40;;;2.00;;
5085;SDS011;4715;51.660;7.082;2023-07-30T10:14:52;10.43;;;2.90;;
5085;SDS011;4715;51.660;7.082;2023-07-30T10:17:14;5.67;;;2.60;;
5085;SDS011;4715;51.660;7.082;2023-07-30T10:19:40;8.60;;;2.20;;
5085;SDS011;4715;51.660;7.082;2023-07-30T10:22:20;7.80;;;2.10;;
5085;SDS011;4715;51.660;7.082;2023-07-30T10:24:55;6.77;;;2.40;;
5085;SDS011;4715;51.660;7.082;2023-07-30T10:27:16;4.83;;;2.53;;
5085;SDS011;4715;51.660;7.082;2023-07-30T10:29:45;5.43;;;2.83;;
5085;SDS011;4715;51.660;7.082;2023-07-30T10:32:09;2.90;;;2.40;;
5085;SDS011;4715;51.660;7.082;2023-07-30T10:34:43;8.53;;;2.67;;
5085;SDS011;4715;51.660;7.082;2023-07-30T10:37:06;6.43;;;2.23;;
5085;SDS011;4715;51.660;7.082;2023-07-30T10:39:30;8.33;;;3.20;;
5085;SDS011;4715;51.660;7.082;2023-07-30T10:41:53;5.90;;;2.40;;
5085;SDS011;4715;51.660;7.082;2023-07-30T10:44:21;3.43;;;2.67;;
5085;SDS011;4715;51.660;7.082;2023-07-30T10:46:47;4.60;;;3.03;;
5085;SDS011;4715;51.660;7.082;2023-07-30T10:49:10;8.40;;;2.07;;
5085;SDS011;4715;51.660;7.082;2023-07-30T10:51:33;13.93;;;3.03;;
5085;SDS011;4715;51.660;7.082;2023-07-30T10:53:55;6.90;;;3.20;;
5085;SDS011;4715;51.660;7.082;2023-07-30T10:56:17;6.33;;;1.97;;
5085;SDS011;4715;51.660;7.082;2023-07-30T10:58:42;4.90;;;2.00;;
5085;SDS011;4715;51.660;7.082;2023-07-30T11:01:09;7.07;;;3.00;;
5085;SDS011;4715;51.660;7.082;2023-07-30T11:03:32;4.70;;;2.07;;
5085;SDS011;4715;51.660;7.082;2023-07-30T11:05:56;2.70;;;1.83;;
5085;SDS011;4715;51.660;7.082;2023-07-30T11:08:21;5.03;;;2.07;;
5085;SDS011;4715;51.660;7.082;2023-07-30T11:10:53;8.30;;;2.60;;
5085;SDS011;4715;51.660;7.082;2023-07-30T11:13:15;3.10;;;1.90;;
5085;SDS011;4715;51.660;7.082;2023-07-30T11:15:40;6.90;;;2.03;;
5085;SDS011;4715;51.660;7.082;2023-07-30T11:18:03;2.77;;;1.60;;
5085;SDS011;4715;51.660;7.082;2023-07-30T11:20:25;5.03;;;1.73;;
5085;SDS011;4715;51.660;7.082;2023-07-30T11:22:49;2.53;;;1.67;;
5085;SDS011;4715;51.660;7.082;2023-07-30T11:25:15;7.60;;;2.13;;
5085;SDS011;4715;51.660;7.082;2023-07-30T11:27:44;10.77;;;2.40;;
5085;SDS011;4715;51.660;7.082;2023-07-30T11:30:07;2.93;;;2.20;;
5085;SDS011;4715;51.660;7.082;2023-07-30T11:32:29;7.30;;;2.17;;
5085;SDS011;4715;51.660;7.082;2023-07-30T11:34:52;4.53;;;2.20;;
5085;SDS011;4715;51.660;7.082;2023-07-30T11:37:14;3.77;;;1.90;;
5085;SDS011;4715;51.660;7.082;2023-07-30T11:39:38;4.33;;;1.70;;
5085;SDS011;4715;51.660;7.082;2023-07-30T11:42:00;4.07;;;1.60;;
5085;SDS011;4715;51.660;7.082;2023-07-30T11:44:32;5.73;;;2.17;;
5085;SDS011;4715;51.660;7.082;2023-07-30T11:46:55;5.40;;;1.90;;
5085;SDS011;4715;51.660;7.082;2023-07-30T11:49:17;3.53;;;2.50;;
5085;SDS011;4715;51.660;7.082;2023-07-30T11:51:41;5.90;;;2.23;;
5085;SDS011;4715;51.660;7.082;2023-07-30T11:54:17;2.47;;;1.50;;
5085;SDS011;4715;51.660;7.082;2023-07-30T11:56:42;8.17;;;2.77;;
5085;SDS011;4715;51.660;7.082;2023-07-30T11:59:05;5.23;;;1.70;;
5085;SDS011;4715;51.660;7.082;2023-07-30T12:01:28;6.30;;;1.80;;
5085;SDS011;4715;51.660;7.082;2023-07-30T12:03:53;3.20;;;1.90;;
5085;SDS011;4715;51.660;7.082;2023-07-30T12:06:16;8.60;;;2.40;;
5085;SDS011;4715;51.660;7.082;2023-07-30T12:08:38;5.67;;;1.80;;
5085;SDS011;4715;51.660;7.082;2023-07-30T12:11:02;5.40;;;2.40;;
5085;SDS011;4715;51.660;7.082;2023-07-30T12:13:26;5.50;;;1.83;;
5085;SDS011;4715;51.660;7.082;2023-07-30T12:15:50;1.87;;;1.77;;
5085;SDS011;4715;51.660;7.082;2023-07-30T12:18:14;1.30;;;1.10;;
5085;SDS011;4715;51.660;7.082;2023-07-30T12:20:35;1.50;;;1.40;;
5085;SDS011;4715;51.660;7.082;2023-07-30T12:22:59;1.50;;;1.17;;
5085;SDS011;4715;51.660;7.082;2023-07-30T12:25:20;1.50;;;1.30;;
5085;SDS011;4715;51.660;7.082;2023-07-30T12:27:43;1.57;;;1.20;;
5085;SDS011;4715;51.660;7.082;2023-07-30T12:30:08;1.47;;;1.20;;
5085;SDS011;4715;51.660;7.082;2023-07-30T12:32:33;1.20;;;1.10;;
5085;SDS011;4715;51.660;7.082;2023-07-30T12:34:54;2.70;;;1.23;;
5085;SDS011;4715;51.660;7.082;2023-07-30T12:37:16;2.40;;;2.20;;
5085;SDS011;4715;51.660;7.082;2023-07-30T12:39:38;3.80;;;1.43;;
5085;SDS011;4715;51.660;7.082;2023-07-30T12:42:00;1.40;;;1.30;;
5085;SDS011;4715;51.660;7.082;2023-07-30T12:44:22;2.40;;;1.60;;
5085;SDS011;4715;51.660;7.082;2023-07-30T12:46:45;1.57;;;1.47;;
5085;SDS011;4715;51.660;7.082;2023-07-30T12:49:07;2.50;;;1.37;;
5085;SDS011;4715;51.660;7.082;2023-07-30T12:51:29;1.70;;;1.40;;
5085;SDS011;4715;51.660;7.082;2023-07-30T12:53:52;1.27;;;1.13;;
5085;SDS011;4715;51.660;7.082;2023-07-30T12:56:13;1.90;;;1.17;;
5085;SDS011;4715;51.660;7.082;2023-07-30T12:58:36;1.70;;;1.23;;
5085;SDS011;4715;51.660;7.082;2023-07-30T13:00:59;2.57;;;1.57;;
5085;SDS011;4715;51.660;7.082;2023-07-30T13:03:24;2.60;;;1.40;;
5085;SDS011;4715;51.660;7.082;2023-07-30T13:05:48;3.90;;;1.80;;
5085;SDS011;4715;51.660;7.082;2023-07-30T13:08:09;3.20;;;2.10;;
5085;SDS011;4715;51.660;7.082;2023-07-30T13:10:31;2.97;;;1.73;;
5085;SDS011;4715;51.660;7.082;2023-07-30T13:12:53;2.37;;;1.30;;
5085;SDS011;4715;51.660;7.082;2023-07-30T13:15:15;3.30;;;1.53;;
5085;SDS011;4715;51.660;7.082;2023-07-30T13:17:37;2.20;;;2.00;;
5085;SDS011;4715;51.660;7.082;2023-07-30T13:20:01;3.23;;;1.80;;
5085;SDS011;4715;51.660;7.082;2023-07-30T13:22:23;2.13;;;1.60;;
5085;SDS011;4715;51.660;7.082;2023-07-30T13:24:46;2.97;;;1.53;;
5085;SDS011;4715;51.660;7.082;2023-07-30T13:27:07;3.27;;;2.47;;
5085;SDS011;4715;51.660;7.082;2023-07-30T13:29:30;2.93;;;2.10;;
5085;SDS011;4715;51.660;7.082;2023-07-30T13:31:52;3.70;;;1.93;;
5085;SDS011;4715;51.660;7.082;2023-07-30T13:34:14;3.43;;;2.10;;
5085;SDS011;4715;51.660;7.082;2023-07-30T13:36:37;3.80;;;2.13;;
5085;SDS011;4715;51.660;7.082;2023-07-30T13:38:59;3.70;;;1.90;;
5085;SDS011;4715;51.660;7.082;2023-07-30T13:41:21;3.57;;;1.70;;
5085;SDS011;4715;51.660;7.082;2023-07-30T13:43:43;1.87;;;1.47;;
5085;SDS011;4715;51.660;7.082;2023-07-30T13:46:05;2.77;;;2.10;;
5085;SDS011;4715;51.660;7.082;2023-07-30T13:48:27;2.03;;;1.50;;
5085;SDS011;4715;51.660;7.082;2023-07-30T13:50:49;2.60;;;1.67;;
5085;SDS011;4715;51.660;7.082;2023-07-30T13:53:13;3.80;;;1.60;;
5085;SDS011;4715;51.660;7.082;2023-07-30T13:55:35;4.67;;;2.07;;
5085;SDS011;4715;51.660;7.082;2023-07-30T13:57:56;1.77;;;1.60;;
5085;SDS011;4715;51.660;7.082;2023-07-30T14:00:18;2.13;;;1.93;;
5085;SDS011;4715;51.660;7.082;2023-07-30T14:02:40;4.93;;;1.43;;
5085;SDS011;4715;51.660;7.082;2023-07-30T14:05:02;4.30;;;1.87;;
5085;SDS011;4715;51.660;7.082;2023-07-30T14:07:24;4.47;;;2.50;;
5085;SDS011;4715;51.660;7.082;2023-07-30T14:09:48;6.93;;;2.33;;
5085;SDS011;4715;51.660;7.082;2023-07-30T14:12:10;1.40;;;1.30;;
5085;SDS011;4715;51.660;7.082;2023-07-30T14:14:32;5.23;;;1.57;;
5085;SDS011;4715;51.660;7.082;2023-07-30T14:16:54;2.10;;;1.30;;
5085;SDS011;4715;51.660;7.082;2023-07-30T14:19:16;2.70;;;1.70;;
5085;SDS011;4715;51.660;7.082;2023-07-30T14:21:38;5.77;;;1.97;;
5085;SDS011;4715;51.660;7.082;2023-07-30T14:24:00;2.30;;;1.70;;
5085;SDS011;4715;51.660;7.082;2023-07-30T14:26:23;2.60;;;1.43;;
5085;SDS011;4715;51.660;7.082;2023-07-30T14:28:45;1.83;;;1.30;;
5085;SDS011;4715;51.660;7.082;2023-07-30T14:31:07;3.20;;;2.20;;
5085;SDS011;4715;51.660;7.082;2023-07-30T14:33:28;1.40;;;1.30;;
5085;SDS011;4715;51.660;7.082;2023-07-30T14:35:51;2.60;;;1.37;;
5085;SDS011;4715;51.660;7.082;2023-07-30T14:38:13;2.40;;;1.30;;
5085;SDS011;4715;51.660;7.082;2023-07-30T14:40:35;2.93;;;1.50;;
5085;SDS011;4715;51.660;7.082;2023-07-30T14:42:58;4.80;;;1.60;;
5085;SDS011;4715;51.660;7.082;2023-07-30T14:45:20;11.13;;;1.97;;